createdAt,value
2023-02-05T00:02:31.682Z,81.74
2023-02-05T00:05:18.519Z,81.63
2023-02-05T00:08:05.618Z,81.20
2023-02-05T00:10:52.776Z,80.99
2023-02-05T00:13:41.860Z,81.01
2023-02-05T00:16:28.992Z,81.04
2023-02-05T00:19:15.969Z,81.01
2023-02-05T00:22:03.377Z,80.85
2023-02-05T00:24:50.124Z,80.91
2023-02-05T00:27:36.636Z,80.97
2023-02-05T00:30:23.883Z,80.93
2023-02-05T00:33:10.393Z,80.69
2023-02-05T00:35:57.021Z,80.61
2023-02-05T00:38:45.090Z,80.46
2023-02-05T00:41:31.651Z,80.34
2023-02-05T00:44:18.305Z,80.43
2023-02-05T00:47:05.444Z,80.40
2023-02-05T00:49:51.877Z,80.30
2023-02-05T00:52:38.577Z,79.99
2023-02-05T00:55:26.314Z,79.79
2023-02-05T00:58:13.377Z,79.34
2023-02-05T01:00:59.847Z,79.53
2023-02-05T01:03:46.349Z,79.65
2023-02-05T01:06:33.205Z,79.77
2023-02-05T01:09:19.809Z,79.80
2023-02-05T01:12:06.876Z,79.53
2023-02-05T01:14:54.268Z,79.37
2023-02-05T01:17:41.082Z,79.26
2023-02-05T01:20:28.380Z,79.23
2023-02-05T01:23:15.265Z,78.94
2023-02-05T01:26:02.243Z,78.77
2023-02-05T01:28:49.520Z,78.85
2023-02-05T01:31:36.246Z,78.70
2023-02-05T01:34:23.044Z,78.60
2023-02-05T01:37:09.531Z,78.64
2023-02-05T01:39:57.138Z,78.68
2023-02-05T01:42:43.906Z,78.55
2023-02-05T01:45:32.858Z,78.48
2023-02-05T01:48:25.031Z,78.35
2023-02-05T01:51:14.517Z,78.02
2023-02-05T01:54:01.944Z,78.08
2023-02-05T01:57:17.422Z,78.06
2023-02-05T02:00:05.250Z,78.14
2023-02-05T02:02:52.808Z,77.97
2023-02-05T02:05:41.068Z,77.94
2023-02-05T02:08:27.708Z,77.77
2023-02-05T02:11:17.461Z,77.77
2023-02-05T02:14:07.117Z,77.73
2023-02-05T02:16:53.724Z,77.74
2023-02-05T02:20:00.565Z,77.77
2023-02-05T02:22:56.349Z,77.63
2023-02-05T02:26:16.775Z,77.57
2023-02-05T02:29:04.415Z,77.74
2023-02-05T02:32:10.899Z,77.55
2023-02-05T02:35:40.097Z,77.69
2023-02-05T02:38:32.150Z,77.58
2023-02-05T02:41:32.528Z,77.39
2023-02-05T02:44:45.790Z,77.23
2023-02-05T02:47:38.386Z,77.21
2023-02-05T02:50:36.011Z,77.27
2023-02-05T02:53:28.415Z,77.24
2023-02-05T02:56:17.115Z,77.37
2023-02-05T02:59:10.866Z,77.39
2023-02-05T03:02:02.560Z,77.04
2023-02-05T03:04:58.998Z,76.79
2023-02-05T03:07:54.516Z,76.71
2023-02-05T03:10:48.016Z,76.57
2023-02-05T03:13:35.497Z,76.25
2023-02-05T03:16:24.649Z,76.35
2023-02-05T03:19:11.535Z,76.26
2023-02-05T03:22:02.964Z,76.12
2023-02-05T03:24:51.099Z,76.14
2023-02-05T03:27:38.671Z,76.01
2023-02-05T03:30:31.344Z,75.98
2023-02-05T03:38:29.383Z,76.13
2023-02-05T03:41:45.624Z,76.08
2023-02-05T03:45:01.404Z,76.27
2023-02-05T03:48:11.942Z,76.10
2023-02-05T03:51:22.971Z,76.43
2023-02-05T03:54:27.248Z,76.72
2023-02-05T03:57:28.797Z,76.58
2023-02-05T04:00:16.017Z,76.62
2023-02-05T04:03:03.227Z,76.73
2023-02-05T04:05:49.685Z,76.49
2023-02-05T04:08:36.285Z,76.65
2023-02-05T04:11:23.411Z,76.76
2023-02-05T04:14:09.875Z,76.77
2023-02-05T04:16:56.339Z,76.87
2023-02-05T04:19:42.877Z,77.01
2023-02-05T04:22:29.641Z,76.70
2023-02-05T04:25:16.431Z,76.66
2023-02-05T04:28:03.306Z,76.86
2023-02-05T04:30:49.982Z,77.01
2023-02-05T04:33:36.858Z,76.98
2023-02-05T04:36:23.225Z,76.98
2023-02-05T04:39:09.912Z,77.03
2023-02-05T04:41:56.667Z,77.20
2023-02-05T04:44:43.399Z,77.30
2023-02-05T04:47:30.677Z,77.25
2023-02-05T04:50:18.507Z,77.30
2023-02-05T04:53:05.225Z,77.56
2023-02-05T04:55:52.052Z,77.53
2023-02-05T04:58:39.531Z,77.45
2023-02-05T05:01:26.151Z,77.58
2023-02-05T05:04:12.860Z,77.48
2023-02-05T05:06:59.545Z,77.57
2023-02-05T05:09:45.914Z,77.45
2023-02-05T05:12:33.187Z,77.57
2023-02-05T05:15:19.841Z,77.68
2023-02-05T05:18:06.503Z,77.73
2023-02-05T05:20:53.331Z,77.82
2023-02-05T05:23:39.879Z,77.71
2023-02-05T05:26:26.645Z,77.68
2023-02-05T05:29:14.457Z,77.63
2023-02-05T05:32:01.744Z,77.75
2023-02-05T05:34:48.445Z,77.77
2023-02-05T05:37:34.855Z,77.83
2023-02-05T05:40:39.741Z,77.66
2023-02-05T05:43:45.306Z,77.92
2023-02-05T05:46:32.006Z,77.77
2023-02-05T05:49:18.649Z,77.78
2023-02-05T05:52:05.518Z,77.66
2023-02-05T05:55:18.865Z,77.78
2023-02-05T05:58:07.033Z,77.47
2023-02-05T06:00:54.998Z,77.50
2023-02-05T06:03:43.315Z,77.68
2023-02-05T06:06:29.587Z,77.65
2023-02-05T06:09:16.330Z,77.34
2023-02-05T06:12:03.163Z,77.44
2023-02-05T06:14:49.494Z,77.28
2023-02-05T06:17:36.327Z,76.99
2023-02-05T06:20:22.878Z,77.09
2023-02-05T06:23:10.167Z,77.17
2023-02-05T06:25:57.187Z,77.39
2023-02-05T06:28:43.833Z,77.41
2023-02-05T06:31:33.246Z,77.37
2023-02-05T06:34:20.144Z,77.19
2023-02-05T06:37:10.230Z,77.33
2023-02-05T06:39:57.960Z,77.40
2023-02-05T06:42:46.067Z,77.50
2023-02-05T06:45:32.969Z,77.59
2023-02-05T06:48:22.641Z,77.60
2023-02-05T06:51:11.379Z,77.62
2023-02-05T06:54:00.645Z,77.60
2023-02-05T06:56:47.903Z,77.43
2023-02-05T06:59:34.524Z,77.19
2023-02-05T07:02:24.680Z,77.43
2023-02-05T07:05:15.219Z,77.47
2023-02-05T07:08:04.251Z,76.84
2023-02-05T07:10:51.546Z,76.74
2023-02-05T07:13:38.387Z,76.74
2023-02-05T07:16:25.083Z,76.91
2023-02-05T07:19:11.783Z,76.97
2023-02-05T07:21:58.462Z,76.63
2023-02-05T07:24:45.404Z,76.47
2023-02-05T07:27:32.950Z,76.54
2023-02-05T07:30:22.289Z,76.31
2023-02-05T07:33:10.249Z,76.14
2023-02-05T07:36:08.125Z,76.21
2023-02-05T07:38:54.810Z,76.18
2023-02-05T07:41:41.177Z,75.71
2023-02-05T07:44:27.648Z,75.58
2023-02-05T07:47:16.003Z,75.56
2023-02-05T07:50:02.521Z,75.20
2023-02-05T07:52:50.359Z,74.03
2023-02-05T07:55:36.674Z,74.02
2023-02-05T07:58:26.102Z,74.05
2023-02-05T08:01:13.536Z,73.96
2023-02-05T08:04:02.274Z,73.32
2023-02-05T08:06:49.690Z,72.30
2023-02-05T08:09:36.266Z,72.05
2023-02-05T08:12:23.009Z,71.75
2023-02-05T08:15:10.095Z,70.97
2023-02-05T08:17:56.476Z,68.38
2023-02-05T08:20:43.040Z,66.39
2023-02-05T08:23:29.622Z,64.22
2023-02-05T08:26:17.837Z,62.85
2023-02-05T08:29:04.841Z,62.65
2023-02-05T08:31:51.351Z,59.83
2023-02-05T08:34:45.552Z,58.43
2023-02-05T08:37:33.043Z,58.11
2023-02-05T08:40:20.450Z,57.87
2023-02-05T08:43:08.699Z,59.16
2023-02-05T08:45:55.294Z,60.31
2023-02-05T08:48:42.416Z,61.95
2023-02-05T08:51:30.627Z,63.37
2023-02-05T08:54:17.275Z,64.44
2023-02-05T08:57:05.928Z,64.67
2023-02-05T08:59:55.935Z,62.95
2023-02-05T09:02:43.357Z,61.47
2023-02-05T09:05:29.847Z,59.61
2023-02-05T09:08:16.634Z,59.85
2023-02-05T09:11:03.679Z,60.82
2023-02-05T09:13:54.328Z,62.05
2023-02-05T09:16:41.569Z,61.66
2023-02-05T09:19:28.416Z,61.26
2023-02-05T09:22:15.019Z,61.30
2023-02-05T09:25:03.606Z,61.25
2023-02-05T09:27:50.275Z,61.32
2023-02-05T09:30:39.169Z,61.40
2023-02-05T09:33:26.569Z,60.70
2023-02-05T09:36:18.873Z,59.58
2023-02-05T09:39:16.843Z,61.16
2023-02-05T09:42:35.073Z,62.09
2023-02-05T09:45:42.718Z,61.81
2023-02-05T09:48:49.648Z,62.65
2023-02-05T09:51:46.395Z,63.08
2023-02-05T09:54:38.735Z,63.33
2023-02-05T09:57:39.545Z,63.51
2023-02-05T10:00:30.737Z,63.35
2023-02-05T10:04:01.086Z,63.51
2023-02-05T10:06:54.595Z,63.61
2023-02-05T10:09:54.892Z,63.76
2023-02-05T10:13:06.404Z,64.28
2023-02-05T10:16:40.427Z,64.36
2023-02-05T10:20:03.280Z,64.42
2023-02-05T10:23:17.747Z,64.22
2023-02-05T10:26:12.365Z,64.42
2023-02-05T10:29:35.666Z,64.67
2023-02-05T10:32:24.629Z,64.55
2023-02-05T10:35:24.976Z,64.89
2023-02-05T10:38:21.289Z,64.76
2023-02-05T10:41:20.206Z,64.56
2023-02-05T10:44:22.349Z,64.69
2023-02-05T10:47:41.609Z,64.44
2023-02-05T10:50:47.724Z,64.81
2023-02-05T10:53:36.352Z,64.59
2023-02-05T10:56:25.370Z,64.74
2023-02-05T10:59:22.410Z,64.89
2023-02-05T11:02:09.888Z,64.84
2023-02-05T11:05:01.589Z,64.93
2023-02-05T11:07:50.969Z,65.13
2023-02-05T11:10:38.233Z,65.16
2023-02-05T11:13:25.155Z,65.00
2023-02-05T11:16:12.786Z,64.62
2023-02-05T11:19:01.455Z,64.21
2023-02-05T11:21:55.713Z,64.31
2023-02-05T11:24:42.684Z,64.42
2023-02-05T11:27:32.828Z,64.03
2023-02-05T11:30:55.883Z,63.70
2023-02-05T11:34:22.014Z,64.06
2023-02-05T11:38:02.331Z,64.42
2023-02-05T11:41:58.055Z,64.44
2023-02-05T11:45:45.171Z,64.39
2023-02-05T11:52:44.950Z,64.14
2023-02-05T11:56:56.337Z,63.75
2023-02-05T12:00:29.947Z,63.53
2023-02-05T12:04:11.783Z,63.84
2023-02-05T12:07:57.653Z,64.19
2023-02-05T12:12:07.048Z,64.75
2023-02-05T12:15:35.617Z,65.32
2023-02-05T12:19:55.112Z,65.32
2023-02-05T12:23:57.521Z,65.63
2023-02-05T12:30:31.741Z,65.42
2023-02-05T12:34:33.563Z,65.62
2023-02-05T12:38:51.827Z,65.31
2023-02-05T12:42:43.199Z,65.02
2023-02-05T12:51:32.876Z,64.52
2023-02-05T12:55:24.384Z,64.34
2023-02-05T12:58:54.052Z,64.48
2023-02-05T13:02:11.931Z,64.42
2023-02-05T13:09:53.534Z,65.03
2023-02-05T13:13:39.925Z,65.24
2023-02-05T13:17:42.001Z,65.19
2023-02-05T13:21:49.406Z,65.63
2023-02-05T13:26:05.148Z,65.54
2023-02-05T13:29:57.721Z,65.30
2023-02-05T13:33:02.997Z,65.51
2023-02-05T13:36:40.683Z,65.40
2023-02-05T13:40:42.273Z,65.27
2023-02-05T13:47:40.178Z,65.50
2023-02-05T13:50:55.376Z,65.50
2023-02-05T13:54:17.418Z,65.51
2023-02-05T13:57:41.707Z,65.27
2023-02-05T14:00:29.254Z,65.70
2023-02-05T14:03:31.772Z,65.81
2023-02-05T14:06:38.888Z,65.89
2023-02-05T14:09:37.756Z,65.97
2023-02-05T14:12:30.470Z,66.03
2023-02-05T14:15:18.408Z,66.17
2023-02-05T14:18:08.027Z,65.93
2023-02-05T14:20:54.657Z,65.34
2023-02-05T14:23:47.863Z,65.20
2023-02-05T14:26:51.417Z,64.47
2023-02-05T14:29:47.122Z,64.43
2023-02-05T14:32:40.120Z,64.85
2023-02-05T14:35:33.311Z,65.02
2023-02-05T14:38:31.252Z,64.98
2023-02-05T14:41:29.118Z,65.04
2023-02-05T14:44:23.804Z,64.84
2023-02-05T14:47:27.488Z,64.82
2023-02-05T14:50:28.438Z,64.69
2023-02-05T14:53:30.265Z,64.98
2023-02-05T14:56:40.809Z,64.97
2023-02-05T14:59:38.492Z,65.40
2023-02-05T15:02:59.151Z,65.39
2023-02-05T15:05:50.698Z,65.98
2023-02-05T15:08:49.306Z,66.05
2023-02-05T15:12:28.289Z,66.10
2023-02-05T15:15:35.745Z,66.38
2023-02-05T15:18:33.131Z,66.48
2023-02-05T15:21:26.068Z,66.59
2023-02-05T15:24:24.792Z,66.74
2023-02-05T15:27:23.627Z,67.28
2023-02-05T15:30:18.473Z,67.47
2023-02-05T15:33:30.061Z,67.37
2023-02-05T15:36:43.768Z,67.32
2023-02-05T15:39:58.497Z,67.60
2023-02-05T15:42:51.898Z,68.01
2023-02-05T15:45:44.971Z,68.22
2023-02-05T15:48:34.775Z,68.14
2023-02-05T15:51:28.132Z,68.06
2023-02-05T15:54:21.353Z,68.00
2023-02-05T15:57:16.280Z,68.13
2023-02-05T16:00:07.975Z,68.27
2023-02-05T16:02:57.875Z,68.16
2023-02-05T16:05:52.960Z,68.32
2023-02-05T16:08:47.416Z,68.41
2023-02-05T16:11:35.952Z,68.43
2023-02-05T16:14:33.734Z,68.89
2023-02-05T16:17:28.762Z,69.03
2023-02-05T16:20:32.466Z,69.18
2023-02-05T16:23:38.147Z,69.37
2023-02-05T16:26:28.947Z,69.21
2023-02-05T16:29:36.121Z,69.20
2023-02-05T16:32:35.736Z,69.04
2023-02-05T16:35:27.217Z,68.63
2023-02-05T16:38:20.842Z,68.88
2023-02-05T16:41:25.944Z,68.61
2023-02-05T16:44:32.900Z,68.67
2023-02-05T16:47:20.695Z,68.72
2023-02-05T16:50:33.163Z,68.89
2023-02-05T16:53:26.867Z,69.14
2023-02-05T16:56:27.197Z,69.27
2023-02-05T16:59:23.340Z,69.43
2023-02-05T17:02:29.543Z,69.65
2023-02-05T17:05:28.017Z,69.78
2023-02-05T17:08:15.072Z,69.67
2023-02-05T17:11:06.928Z,69.44
2023-02-05T17:14:12.578Z,69.61
2023-02-05T17:17:04.610Z,69.69
2023-02-05T17:20:11.798Z,69.75
2023-02-05T17:22:59.359Z,69.69
2023-02-05T17:25:56.081Z,69.24
2023-02-05T17:28:50.295Z,69.14
2023-02-05T17:31:39.355Z,69.38
2023-02-05T17:34:27.122Z,69.46
2023-02-05T17:37:15.675Z,69.10
2023-02-05T17:40:02.987Z,69.02
2023-02-05T17:42:50.280Z,68.92
2023-02-05T17:45:41.194Z,68.74
2023-02-05T17:48:28.277Z,68.62
2023-02-05T17:51:20.744Z,68.81
2023-02-05T17:54:34.226Z,69.08
2023-02-05T17:57:22.748Z,69.08
2023-02-05T18:00:25.296Z,69.08
2023-02-05T18:03:12.598Z,69.09
2023-02-05T18:06:00.648Z,69.43
2023-02-05T18:08:47.944Z,69.50
2023-02-05T18:11:35.685Z,69.52
2023-02-05T18:14:23.960Z,69.49
2023-02-05T18:17:11.487Z,69.42
2023-02-05T18:19:58.768Z,69.68
2023-02-05T18:22:49.952Z,69.64
2023-02-05T18:25:39.483Z,69.59
2023-02-05T18:28:28.626Z,69.68
2023-02-05T18:31:16.023Z,69.72
2023-02-05T18:34:07.392Z,70.12
2023-02-05T18:36:55.050Z,70.45
2023-02-05T18:39:43.780Z,70.71
2023-02-05T18:42:30.937Z,70.72
2023-02-05T18:45:19.198Z,71.00
2023-02-05T18:48:06.748Z,71.30
2023-02-05T18:50:54.808Z,71.64
2023-02-05T18:53:44.880Z,71.89
2023-02-05T18:56:32.509Z,72.08
2023-02-05T18:59:21.498Z,72.22
2023-02-05T19:02:10.929Z,72.42
2023-02-05T19:04:58.382Z,72.70
2023-02-05T19:07:48.235Z,73.01
2023-02-05T19:10:37.464Z,73.31
2023-02-05T19:13:25.158Z,73.58
2023-02-05T19:16:18.413Z,73.82
2023-02-05T19:19:07.486Z,74.06
2023-02-05T19:22:00.248Z,74.23
2023-02-05T19:24:48.419Z,74.45
2023-02-05T19:27:36.103Z,74.68
2023-02-05T19:30:24.169Z,74.81
2023-02-05T19:33:14.895Z,74.97
2023-02-05T19:36:04.647Z,75.21
2023-02-05T19:38:52.952Z,75.53
2023-02-05T19:41:41.847Z,75.77
2023-02-05T19:44:31.229Z,76.12
2023-02-05T19:47:18.685Z,76.33
2023-02-05T19:50:06.055Z,76.45
2023-02-05T19:52:53.732Z,76.56
2023-02-05T19:55:40.505Z,76.66
2023-02-05T19:58:27.577Z,76.82
2023-02-05T20:01:15.796Z,77.03
2023-02-05T20:04:09.629Z,77.23
2023-02-05T20:06:59.914Z,77.40
2023-02-05T20:09:48.969Z,77.55
2023-02-05T20:12:35.330Z,77.69
2023-02-05T20:15:22.052Z,77.86
2023-02-05T20:18:08.573Z,78.16
2023-02-05T20:20:57.951Z,78.36
2023-02-05T20:23:44.853Z,78.46
2023-02-05T20:26:31.855Z,78.52
2023-02-05T20:29:36.946Z,78.63
2023-02-05T20:32:23.485Z,78.73
2023-02-05T20:35:09.833Z,78.84
2023-02-05T20:37:56.303Z,79.02
2023-02-05T20:40:42.886Z,79.49
2023-02-05T20:43:29.448Z,80.14
2023-02-05T20:46:16.344Z,80.36
2023-02-05T20:49:03.549Z,80.32
2023-02-05T20:51:50.301Z,80.22
2023-02-05T20:54:36.974Z,80.19
2023-02-05T20:57:23.184Z,80.15
2023-02-05T21:00:11.387Z,80.18
2023-02-05T21:02:57.904Z,80.21
2023-02-05T21:05:44.756Z,80.31
2023-02-05T21:08:32.905Z,80.40
2023-02-05T21:11:21.092Z,80.46
2023-02-05T21:14:08.446Z,80.56
2023-02-05T21:16:54.772Z,80.80
2023-02-05T21:19:41.474Z,80.98
2023-02-05T21:22:28.961Z,81.15
2023-02-05T21:25:15.217Z,81.28
2023-02-05T21:28:01.826Z,81.42
2023-02-05T21:30:51.252Z,81.56
2023-02-05T21:33:37.778Z,81.68
2023-02-05T21:36:25.047Z,81.81
2023-02-05T21:39:17.656Z,81.87
2023-02-05T21:42:03.958Z,81.98
2023-02-05T21:44:53.731Z,82.03
2023-02-05T21:47:40.343Z,82.04
2023-02-05T21:50:27.025Z,82.16
2023-02-05T21:56:30.644Z,82.36
2023-02-05T21:59:17.238Z,82.37
2023-02-05T22:02:03.818Z,82.36
2023-02-05T22:04:50.466Z,82.42
2023-02-05T22:07:37.329Z,82.45
2023-02-05T22:10:23.486Z,82.45
2023-02-05T22:13:16.215Z,82.49
2023-02-05T22:16:05.425Z,82.54
2023-02-05T22:18:53.469Z,82.52
2023-02-05T22:21:42.418Z,82.53
2023-02-05T22:24:28.968Z,82.56
2023-02-05T22:27:15.659Z,82.63
2023-02-05T22:30:02.297Z,82.72
2023-02-05T22:32:48.686Z,82.80
2023-02-05T22:35:35.135Z,82.89
2023-02-05T22:38:21.546Z,83.01
2023-02-05T22:41:16.712Z,83.12
2023-02-05T22:44:04.978Z,83.17
2023-02-05T22:46:52.929Z,83.27
2023-02-05T22:49:39.479Z,83.38
2023-02-05T22:52:26.254Z,83.43
2023-02-05T22:55:12.850Z,83.41
2023-02-05T22:57:59.609Z,83.42
2023-02-05T23:00:46.386Z,83.38
2023-02-05T23:03:34.562Z,83.34
2023-02-05T23:06:23.901Z,83.43
2023-02-05T23:09:16.443Z,83.45
2023-02-05T23:12:03.304Z,83.45
2023-02-05T23:14:49.910Z,83.52
2023-02-05T23:17:36.177Z,83.64
2023-02-05T23:20:22.761Z,83.70
2023-02-05T23:23:09.392Z,83.74
2023-02-05T23:25:56.177Z,83.74
2023-02-05T23:28:42.988Z,83.78
2023-02-05T23:31:30.325Z,83.75
2023-02-05T23:34:16.927Z,83.78
2023-02-05T23:37:03.839Z,83.83
2023-02-05T23:39:52.489Z,83.85
2023-02-05T23:42:39.108Z,83.93
2023-02-05T23:45:25.413Z,83.99
2023-02-05T23:48:12.478Z,84.02
2023-02-05T23:50:59.232Z,84.03
2023-02-05T23:53:45.807Z,83.97
2023-02-05T23:56:32.325Z,83.94
2023-02-05T23:59:18.979Z,83.91
